sensor_id;sensor_type;location;lat;lon;timestamp;P1;durP1;ratioP1;P2;durP2;ratioP2
12631;SDS011;6381;45.748;12.106;2023-04-24T00:00:55;20.80;;;18.37;;
12631;SDS011;6381;45.748;12.106;2023-04-24T00:03:26;20.30;;;17.17;;
12631;SDS011;6381;45.748;12.106;2023-04-24T00:05:57;20.07;;;17.77;;
12631;SDS011;6381;45.748;12.106;2023-04-24T00:08:27;22.80;;;17.90;;
12631;SDS011;6381;45.748;12.106;2023-04-24T00:10:56;20.43;;;17.40;;
12631;SDS011;6381;45.748;12.106;2023-04-24T00:13:26;20.27;;;17.03;;
12631;SDS011;6381;45.748;12.106;2023-04-24T00:15:55;17.90;;;16.00;;
12631;SDS011;6381;45.748;12.106;2023-04-24T00:18:24;17.37;;;15.57;;
12631;SDS011;6381;45.748;12.106;2023-04-24T00:20:54;17.67;;;15.73;;
12631;SDS011;6381;45.748;12.106;2023-04-24T00:23:23;19.20;;;15.87;;
12631;SDS011;6381;45.748;12.106;2023-04-24T00:25:52;18.03;;;16.33;;
12631;SDS011;6381;45.748;12.106;2023-04-24T00:28:21;19.07;;;17.17;;
12631;SDS011;6381;45.748;12.106;2023-04-24T00:30:50;18.40;;;15.87;;
12631;SDS011;6381;45.748;12.106;2023-04-24T00:33:19;18.80;;;16.80;;
12631;SDS011;6381;45.748;12.106;2023-04-24T00:35:49;18.00;;;16.23;;
12631;SDS011;6381;45.748;12.106;2023-04-24T00:38:19;16.87;;;15.27;;
12631;SDS011;6381;45.748;12.106;2023-04-24T00:40:48;17.83;;;16.03;;
12631;SDS011;6381;45.748;12.106;2023-04-24T00:43:17;16.37;;;14.80;;
12631;SDS011;6381;45.748;12.106;2023-04-24T00:45:46;18.27;;;16.33;;
12631;SDS011;6381;45.748;12.106;2023-04-24T00:48:15;17.98;;;16.13;;
12631;SDS011;6381;45.748;12.106;2023-04-24T00:50:45;17.40;;;14.43;;
12631;SDS011;6381;45.748;12.106;2023-04-24T00:53:14;17.83;;;15.53;;
12631;SDS011;6381;45.748;12.106;2023-04-24T00:55:44;16.33;;;14.67;;
12631;SDS011;6381;45.748;12.106;2023-04-24T00:58:13;16.50;;;14.83;;
12631;SDS011;6381;45.748;12.106;2023-04-24T01:00:42;15.87;;;14.37;;
12631;SDS011;6381;45.748;12.106;2023-04-24T01:03:12;15.27;;;13.70;;
12631;SDS011;6381;45.748;12.106;2023-04-24T01:05:41;15.97;;;14.47;;
12631;SDS011;6381;45.748;12.106;2023-04-24T01:08:10;15.93;;;13.90;;
12631;SDS011;6381;45.748;12.106;2023-04-24T01:10:39;15.30;;;13.73;;
12631;SDS011;6381;45.748;12.106;2023-04-24T01:13:12;15.10;;;13.60;;
12631;SDS011;6381;45.748;12.106;2023-04-24T01:15:43;14.47;;;12.97;;
12631;SDS011;6381;45.748;12.106;2023-04-24T01:18:12;14.33;;;12.93;;
12631;SDS011;6381;45.748;12.106;2023-04-24T01:20:42;15.17;;;12.43;;
12631;SDS011;6381;45.748;12.106;2023-04-24T01:23:14;14.20;;;12.70;;
12631;SDS011;6381;45.748;12.106;2023-04-24T01:25:44;14.20;;;12.63;;
12631;SDS011;6381;45.748;12.106;2023-04-24T01:28:13;13.17;;;11.83;;
12631;SDS011;6381;45.748;12.106;2023-04-24T01:30:42;12.63;;;11.33;;
12631;SDS011;6381;45.748;12.106;2023-04-24T01:33:13;12.47;;;11.23;;
12631;SDS011;6381;45.748;12.106;2023-04-24T01:35:42;12.70;;;11.37;;
12631;SDS011;6381;45.748;12.106;2023-04-24T01:38:10;11.93;;;10.77;;
12631;SDS011;6381;45.748;12.106;2023-04-24T01:40:41;12.98;;;11.63;;
12631;SDS011;6381;45.748;12.106;2023-04-24T01:43:10;11.47;;;10.27;;
12631;SDS011;6381;45.748;12.106;2023-04-24T01:45:39;12.50;;;11.33;;
12631;SDS011;6381;45.748;12.106;2023-04-24T01:48:08;12.50;;;11.13;;
12631;SDS011;6381;45.748;12.106;2023-04-24T01:50:37;12.57;;;11.47;;
12631;SDS011;6381;45.748;12.106;2023-04-24T01:53:06;12.43;;;11.33;;
12631;SDS011;6381;45.748;12.106;2023-04-24T01:55:35;12.33;;;10.97;;
12631;SDS011;6381;45.748;12.106;2023-04-24T01:58:06;12.57;;;11.40;;
12631;SDS011;6381;45.748;12.106;2023-04-24T02:00:34;11.60;;;10.43;;
12631;SDS011;6381;45.748;12.106;2023-04-24T02:03:03;12.73;;;11.43;;
12631;SDS011;6381;45.748;12.106;2023-04-24T02:05:32;11.77;;;10.60;;
12631;SDS011;6381;45.748;12.106;2023-04-24T02:08:02;11.90;;;10.80;;
12631;SDS011;6381;45.748;12.106;2023-04-24T02:10:31;11.70;;;10.60;;
12631;SDS011;6381;45.748;12.106;2023-04-24T02:12:59;12.47;;;11.17;;
12631;SDS011;6381;45.748;12.106;2023-04-24T02:15:30;12.17;;;10.97;;
12631;SDS011;6381;45.748;12.106;2023-04-24T02:17:59;12.03;;;11.03;;
12631;SDS011;6381;45.748;12.106;2023-04-24T02:20:30;10.33;;;9.43;;
12631;SDS011;6381;45.748;12.106;2023-04-24T02:23:00;11.70;;;10.27;;
12631;SDS011;6381;45.748;12.106;2023-04-24T02:25:29;11.77;;;10.57;;
12631;SDS011;6381;45.748;12.106;2023-04-24T02:27:58;11.57;;;10.50;;
12631;SDS011;6381;45.748;12.106;2023-04-24T02:30:27;11.53;;;10.43;;
12631;SDS011;6381;45.748;12.106;2023-04-24T02:32:57;11.60;;;10.40;;
12631;SDS011;6381;45.748;12.106;2023-04-24T02:35:26;11.33;;;10.17;;
12631;SDS011;6381;45.748;12.106;2023-04-24T02:37:55;11.10;;;10.00;;
12631;SDS011;6381;45.748;12.106;2023-04-24T02:40:24;11.50;;;10.43;;
12631;SDS011;6381;45.748;12.106;2023-04-24T02:42:53;11.27;;;10.17;;
12631;SDS011;6381;45.748;12.106;2023-04-24T02:45:23;12.77;;;10.73;;
12631;SDS011;6381;45.748;12.106;2023-04-24T02:47:52;12.23;;;11.03;;
12631;SDS011;6381;45.748;12.106;2023-04-24T02:50:23;11.93;;;10.77;;
12631;SDS011;6381;45.748;12.106;2023-04-24T02:52:52;12.40;;;11.20;;
12631;SDS011;6381;45.748;12.106;2023-04-24T02:55:20;11.63;;;10.43;;
12631;SDS011;6381;45.748;12.106;2023-04-24T02:57:49;11.93;;;10.73;;
12631;SDS011;6381;45.748;12.106;2023-04-24T03:00:18;12.00;;;10.90;;
12631;SDS011;6381;45.748;12.106;2023-04-24T03:02:47;12.57;;;11.20;;
12631;SDS011;6381;45.748;12.106;2023-04-24T03:05:16;12.30;;;11.17;;
12631;SDS011;6381;45.748;12.106;2023-04-24T03:07:49;12.73;;;11.27;;
12631;SDS011;6381;45.748;12.106;2023-04-24T03:10:20;11.47;;;10.33;;
12631;SDS011;6381;45.748;12.106;2023-04-24T03:12:50;13.93;;;10.23;;
12631;SDS011;6381;45.748;12.106;2023-04-24T03:15:20;11.40;;;10.30;;
12631;SDS011;6381;45.748;12.106;2023-04-24T03:17:49;11.27;;;10.10;;
12631;SDS011;6381;45.748;12.106;2023-04-24T03:20:22;11.07;;;10.00;;
12631;SDS011;6381;45.748;12.106;2023-04-24T03:22:55;11.40;;;10.23;;
12631;SDS011;6381;45.748;12.106;2023-04-24T03:25:25;11.10;;;10.00;;
12631;SDS011;6381;45.748;12.106;2023-04-24T03:27:54;11.77;;;10.47;;
12631;SDS011;6381;45.748;12.106;2023-04-24T03:30:38;11.53;;;10.30;;
12631;SDS011;6381;45.748;12.106;2023-04-24T03:33:07;11.17;;;9.93;;
12631;SDS011;6381;45.748;12.106;2023-04-24T03:35:43;11.00;;;10.00;;
12631;SDS011;6381;45.748;12.106;2023-04-24T03:38:13;11.20;;;10.20;;
12631;SDS011;6381;45.748;12.106;2023-04-24T03:41:01;11.00;;;9.90;;
12631;SDS011;6381;45.748;12.106;2023-04-24T03:43:44;11.40;;;10.17;;
12631;SDS011;6381;45.748;12.106;2023-04-24T03:46:14;11.80;;;10.60;;
12631;SDS011;6381;45.748;12.106;2023-04-24T03:48:50;13.33;;;10.03;;
12631;SDS011;6381;45.748;12.106;2023-04-24T03:51:24;12.87;;;10.90;;
12631;SDS011;6381;45.748;12.106;2023-04-24T03:54:00;14.20;;;10.33;;
12631;SDS011;6381;45.748;12.106;2023-04-24T03:56:33;11.57;;;10.07;;
12631;SDS011;6381;45.748;12.106;2023-04-24T03:59:02;13.10;;;10.53;;
12631;SDS011;6381;45.748;12.106;2023-04-24T04:01:31;11.17;;;10.07;;
12631;SDS011;6381;45.748;12.106;2023-04-24T04:04:12;15.37;;;10.27;;
12631;SDS011;6381;45.748;12.106;2023-04-24T04:06:42;12.30;;;10.77;;
12631;SDS011;6381;45.748;12.106;2023-04-24T04:09:14;13.07;;;10.13;;
12631;SDS011;6381;45.748;12.106;2023-04-24T04:11:44;10.77;;;9.70;;
12631;SDS011;6381;45.748;12.106;2023-04-24T04:14:13;10.97;;;9.80;;
12631;SDS011;6381;45.748;12.106;2023-04-24T04:16:45;14.00;;;10.33;;
12631;SDS011;6381;45.748;12.106;2023-04-24T04:19:14;11.23;;;9.73;;
12631;SDS011;6381;45.748;12.106;2023-04-24T04:21:43;16.87;;;11.73;;
12631;SDS011;6381;45.748;12.106;2023-04-24T04:24:26;11.70;;;10.50;;
12631;SDS011;6381;45.748;12.106;2023-04-24T04:26:57;14.40;;;10.50;;
12631;SDS011;6381;45.748;12.106;2023-04-24T04:29:31;12.70;;;11.17;;
12631;SDS011;6381;45.748;12.106;2023-04-24T04:32:03;14.10;;;10.60;;
12631;SDS011;6381;45.748;12.106;2023-04-24T04:34:33;12.73;;;10.97;;
12631;SDS011;6381;45.748;12.106;2023-04-24T04:37:05;13.20;;;11.10;;
12631;SDS011;6381;45.748;12.106;2023-04-24T04:39:43;11.83;;;10.47;;
12631;SDS011;6381;45.748;12.106;2023-04-24T04:42:18;12.53;;;10.87;;
12631;SDS011;6381;45.748;12.106;2023-04-24T04:44:48;13.63;;;10.57;;
12631;SDS011;6381;45.748;12.106;2023-04-24T04:47:23;13.00;;;10.47;;
12631;SDS011;6381;45.748;12.106;2023-04-24T04:49:55;11.83;;;10.73;;
12631;SDS011;6381;45.748;12.106;2023-04-24T04:52:26;11.70;;;10.50;;
12631;SDS011;6381;45.748;12.106;2023-04-24T04:55:06;11.63;;;10.43;;
12631;SDS011;6381;45.748;12.106;2023-04-24T04:58:08;15.37;;;11.00;;
12631;SDS011;6381;45.748;12.106;2023-04-24T05:00:37;12.60;;;10.80;;
12631;SDS011;6381;45.748;12.106;2023-04-24T05:03:15;12.80;;;11.50;;
12631;SDS011;6381;45.748;12.106;2023-04-24T05:05:52;15.13;;;10.40;;
12631;SDS011;6381;45.748;12.106;2023-04-24T05:08:22;12.87;;;11.37;;
12631;SDS011;6381;45.748;12.106;2023-04-24T05:10:55;11.60;;;10.40;;
12631;SDS011;6381;45.748;12.106;2023-04-24T05:13:27;14.03;;;11.67;;
12631;SDS011;6381;45.748;12.106;2023-04-24T05:16:15;15.10;;;11.50;;
12631;SDS011;6381;45.748;12.106;2023-04-24T05:18:46;12.90;;;11.70;;
12631;SDS011;6381;45.748;12.106;2023-04-24T05:21:18;18.93;;;15.70;;
12631;SDS011;6381;45.748;12.106;2023-04-24T05:23:50;23.20;;;20.90;;
12631;SDS011;6381;45.748;12.106;2023-04-24T05:26:55;31.00;;;22.73;;
12631;SDS011;6381;45.748;12.106;2023-04-24T05:29:31;23.80;;;18.83;;
12631;SDS011;6381;45.748;12.106;2023-04-24T05:32:02;32.27;;;28.63;;
12631;SDS011;6381;45.748;12.106;2023-04-24T05:34:31;23.20;;;19.57;;
12631;SDS011;6381;45.748;12.106;2023-04-24T05:37:00;17.90;;;15.93;;
12631;SDS011;6381;45.748;12.106;2023-04-24T05:39:29;20.50;;;18.40;;
12631;SDS011;6381;45.748;12.106;2023-04-24T05:42:00;20.13;;;16.20;;
12631;SDS011;6381;45.748;12.106;2023-04-24T05:44:30;17.13;;;15.30;;
12631;SDS011;6381;45.748;12.106;2023-04-24T05:46:59;15.53;;;13.57;;
12631;SDS011;6381;45.748;12.106;2023-04-24T05:49:28;19.30;;;15.30;;
12631;SDS011;6381;45.748;12.106;2023-04-24T05:51:57;15.00;;;13.23;;
12631;SDS011;6381;45.748;12.106;2023-04-24T05:54:26;16.77;;;13.27;;
12631;SDS011;6381;45.748;12.106;2023-04-24T05:56:55;15.80;;;14.13;;
12631;SDS011;6381;45.748;12.106;2023-04-24T05:59:37;14.60;;;13.20;;
12631;SDS011;6381;45.748;12.106;2023-04-24T06:02:07;15.93;;;14.33;;
12631;SDS011;6381;45.748;12.106;2023-04-24T06:04:36;15.83;;;13.97;;
12631;SDS011;6381;45.748;12.106;2023-04-24T06:07:05;15.90;;;14.30;;
12631;SDS011;6381;45.748;12.106;2023-04-24T06:09:34;16.90;;;14.20;;
12631;SDS011;6381;45.748;12.106;2023-04-24T06:12:04;17.70;;;15.97;;
12631;SDS011;6381;45.748;12.106;2023-04-24T06:14:50;17.10;;;15.40;;
12631;SDS011;6381;45.748;12.106;2023-04-24T06:17:24;16.77;;;15.07;;
12631;SDS011;6381;45.748;12.106;2023-04-24T06:19:53;19.80;;;14.37;;
12631;SDS011;6381;45.748;12.106;2023-04-24T06:22:24;15.60;;;13.57;;
12631;SDS011;6381;45.748;12.106;2023-04-24T06:24:52;16.40;;;14.53;;
12631;SDS011;6381;45.748;12.106;2023-04-24T06:27:23;22.60;;;15.33;;
12631;SDS011;6381;45.748;12.106;2023-04-24T06:29:53;17.13;;;14.97;;
12631;SDS011;6381;45.748;12.106;2023-04-24T06:32:22;17.37;;;14.27;;
12631;SDS011;6381;45.748;12.106;2023-04-24T06:34:52;17.27;;;15.00;;
12631;SDS011;6381;45.748;12.106;2023-04-24T06:37:22;18.83;;;14.43;;
12631;SDS011;6381;45.748;12.106;2023-04-24T06:39:51;21.67;;;15.23;;
12631;SDS011;6381;45.748;12.106;2023-04-24T06:42:20;16.10;;;14.47;;
12631;SDS011;6381;45.748;12.106;2023-04-24T06:44:50;18.20;;;15.80;;
12631;SDS011;6381;45.748;12.106;2023-04-24T06:47:20;17.27;;;15.50;;
12631;SDS011;6381;45.748;12.106;2023-04-24T06:49:49;17.53;;;15.70;;
12631;SDS011;6381;45.748;12.106;2023-04-24T06:52:19;20.10;;;15.27;;
12631;SDS011;6381;45.748;12.106;2023-04-24T06:54:47;20.50;;;15.80;;
12631;SDS011;6381;45.748;12.106;2023-04-24T06:57:17;16.60;;;13.97;;
12631;SDS011;6381;45.748;12.106;2023-04-24T06:59:46;16.20;;;14.43;;
12631;SDS011;6381;45.748;12.106;2023-04-24T07:02:15;15.90;;;14.27;;
12631;SDS011;6381;45.748;12.106;2023-04-24T07:04:46;15.83;;;14.20;;
12631;SDS011;6381;45.748;12.106;2023-04-24T07:07:15;16.10;;;14.40;;
12631;SDS011;6381;45.748;12.106;2023-04-24T07:09:44;16.50;;;14.80;;
12631;SDS011;6381;45.748;12.106;2023-04-24T07:12:13;17.03;;;15.23;;
12631;SDS011;6381;45.748;12.106;2023-04-24T07:14:43;17.50;;;15.70;;
12631;SDS011;6381;45.748;12.106;2023-04-24T07:17:12;17.60;;;15.50;;
12631;SDS011;6381;45.748;12.106;2023-04-24T07:19:41;19.70;;;17.37;;
12631;SDS011;6381;45.748;12.106;2023-04-24T07:22:12;20.97;;;17.33;;
12631;SDS011;6381;45.748;12.106;2023-04-24T07:24:43;18.50;;;16.43;;
12631;SDS011;6381;45.748;12.106;2023-04-24T07:27:12;15.90;;;14.20;;
12631;SDS011;6381;45.748;12.106;2023-04-24T07:29:41;16.37;;;14.60;;
12631;SDS011;6381;45.748;12.106;2023-04-24T07:32:11;15.73;;;14.10;;
12631;SDS011;6381;45.748;12.106;2023-04-24T07:34:39;15.60;;;13.97;;
12631;SDS011;6381;45.748;12.106;2023-04-24T07:37:08;15.33;;;13.47;;
12631;SDS011;6381;45.748;12.106;2023-04-24T07:39:38;14.67;;;13.17;;
12631;SDS011;6381;45.748;12.106;2023-04-24T07:42:08;15.30;;;13.47;;
12631;SDS011;6381;45.748;12.106;2023-04-24T07:44:36;14.40;;;13.00;;
12631;SDS011;6381;45.748;12.106;2023-04-24T07:47:05;14.83;;;13.33;;
12631;SDS011;6381;45.748;12.106;2023-04-24T07:49:34;14.80;;;12.37;;
12631;SDS011;6381;45.748;12.106;2023-04-24T07:52:03;11.90;;;10.83;;
12631;SDS011;6381;45.748;12.106;2023-04-24T07:54:32;14.10;;;11.63;;
12631;SDS011;6381;45.748;12.106;2023-04-24T07:57:03;13.10;;;11.83;;
12631;SDS011;6381;45.748;12.106;2023-04-24T07:59:33;13.03;;;11.83;;
12631;SDS011;6381;45.748;12.106;2023-04-24T08:02:02;14.80;;;12.60;;
12631;SDS011;6381;45.748;12.106;2023-04-24T08:04:31;13.97;;;12.40;;
12631;SDS011;6381;45.748;12.106;2023-04-24T08:07:00;14.90;;;13.40;;
12631;SDS011;6381;45.748;12.106;2023-04-24T08:09:29;13.70;;;12.17;;
12631;SDS011;6381;45.748;12.106;2023-04-24T08:11:57;14.97;;;13.57;;
12631;SDS011;6381;45.748;12.106;2023-04-24T08:14:28;12.57;;;11.40;;
12631;SDS011;6381;45.748;12.106;2023-04-24T08:16:56;13.33;;;12.03;;
12631;SDS011;6381;45.748;12.106;2023-04-24T08:19:27;13.37;;;12.07;;
12631;SDS011;6381;45.748;12.106;2023-04-24T08:21:55;12.53;;;11.13;;
12631;SDS011;6381;45.748;12.106;2023-04-24T08:24:24;12.67;;;11.50;;
12631;SDS011;6381;45.748;12.106;2023-04-24T08:26:53;11.80;;;10.60;;
12631;SDS011;6381;45.748;12.106;2023-04-24T08:29:23;11.77;;;10.57;;
12631;SDS011;6381;45.748;12.106;2023-04-24T08:31:54;12.30;;;11.10;;
12631;SDS011;6381;45.748;12.106;2023-04-24T08:34:23;10.73;;;9.70;;
12631;SDS011;6381;45.748;12.106;2023-04-24T08:36:52;9.77;;;8.83;;
12631;SDS011;6381;45.748;12.106;2023-04-24T08:39:21;9.30;;;8.27;;
12631;SDS011;6381;45.748;12.106;2023-04-24T08:41:50;10.47;;;8.87;;
12631;SDS011;6381;45.748;12.106;2023-04-24T08:44:23;11.17;;;8.87;;
12631;SDS011;6381;45.748;12.106;2023-04-24T08:46:52;8.67;;;7.70;;
12631;SDS011;6381;45.748;12.106;2023-04-24T08:49:24;7.50;;;6.80;;
12631;SDS011;6381;45.748;12.106;2023-04-24T08:51:53;10.00;;;9.00;;
12631;SDS011;6381;45.748;12.106;2023-04-24T08:54:22;10.80;;;9.73;;
12631;SDS011;6381;45.748;12.106;2023-04-24T08:56:53;8.17;;;7.27;;
12631;SDS011;6381;45.748;12.106;2023-04-24T08:59:25;7.93;;;7.13;;
12631;SDS011;6381;45.748;12.106;2023-04-24T09:01:56;8.47;;;7.63;;
12631;SDS011;6381;45.748;12.106;2023-04-24T09:04:25;7.47;;;6.77;;
12631;SDS011;6381;45.748;12.106;2023-04-24T09:06:57;9.70;;;6.90;;
12631;SDS011;6381;45.748;12.106;2023-04-24T09:09:26;7.93;;;7.10;;
12631;SDS011;6381;45.748;12.106;2023-04-24T09:11:58;8.63;;;7.47;;
12631;SDS011;6381;45.748;12.106;2023-04-24T09:14:28;9.93;;;9.00;;
12631;SDS011;6381;45.748;12.106;2023-04-24T09:17:00;10.40;;;9.10;;
12631;SDS011;6381;45.748;12.106;2023-04-24T09:19:28;8.57;;;7.77;;
12631;SDS011;6381;45.748;12.106;2023-04-24T09:21:57;8.80;;;7.90;;
12631;SDS011;6381;45.748;12.106;2023-04-24T09:24:26;7.70;;;7.00;;
12631;SDS011;6381;45.748;12.106;2023-04-24T09:26:56;5.97;;;5.47;;
12631;SDS011;6381;45.748;12.106;2023-04-24T09:29:25;5.47;;;4.73;;
12631;SDS011;6381;45.748;12.106;2023-04-24T09:31:54;7.40;;;5.33;;
12631;SDS011;6381;45.748;12.106;2023-04-24T09:34:26;7.60;;;6.53;;
12631;SDS011;6381;45.748;12.106;2023-04-24T09:36:55;13.80;;;10.87;;
12631;SDS011;6381;45.748;12.106;2023-04-24T09:39:24;18.27;;;14.23;;
12631;SDS011;6381;45.748;12.106;2023-04-24T09:41:53;11.80;;;9.60;;
12631;SDS011;6381;45.748;12.106;2023-04-24T09:44:24;9.83;;;8.37;;
12631;SDS011;6381;45.748;12.106;2023-04-24T09:46:55;7.30;;;6.60;;
12631;SDS011;6381;45.748;12.106;2023-04-24T09:49:27;5.07;;;4.37;;
12631;SDS011;6381;45.748;12.106;2023-04-24T09:52:02;4.57;;;4.10;;
12631;SDS011;6381;45.748;12.106;2023-04-24T09:54:32;6.20;;;5.60;;
12631;SDS011;6381;45.748;12.106;2023-04-24T09:57:03;7.77;;;7.03;;
12631;SDS011;6381;45.748;12.106;2023-04-24T09:59:32;8.50;;;7.70;;
12631;SDS011;6381;45.748;12.106;2023-04-24T10:02:03;4.43;;;3.77;;
12631;SDS011;6381;45.748;12.106;2023-04-24T10:04:53;4.40;;;3.60;;
12631;SDS011;6381;45.748;12.106;2023-04-24T10:07:25;4.50;;;3.50;;
12631;SDS011;6381;45.748;12.106;2023-04-24T10:09:54;4.50;;;4.10;;
12631;SDS011;6381;45.748;12.106;2023-04-24T10:12:23;4.47;;;4.07;;
12631;SDS011;6381;45.748;12.106;2023-04-24T10:14:53;4.27;;;3.83;;
12631;SDS011;6381;45.748;12.106;2023-04-24T10:17:22;4.85;;;4.15;;
12631;SDS011;6381;45.748;12.106;2023-04-24T10:19:54;4.90;;;4.40;;
12631;SDS011;6381;45.748;12.106;2023-04-24T10:22:23;7.00;;;5.60;;
12631;SDS011;6381;45.748;12.106;2023-04-24T10:24:53;7.43;;;5.93;;
12631;SDS011;6381;45.748;12.106;2023-04-24T10:27:22;5.63;;;4.80;;
12631;SDS011;6381;45.748;12.106;2023-04-24T10:29:55;6.27;;;4.37;;
12631;SDS011;6381;45.748;12.106;2023-04-24T10:32:24;5.47;;;4.97;;
12631;SDS011;6381;45.748;12.106;2023-04-24T10:34:55;6.80;;;6.17;;
12631;SDS011;6381;45.748;12.106;2023-04-24T10:37:25;6.87;;;6.20;;
12631;SDS011;6381;45.748;12.106;2023-04-24T10:39:54;6.30;;;5.70;;
12631;SDS011;6381;45.748;12.106;2023-04-24T10:42:23;5.53;;;5.03;;
12631;SDS011;6381;45.748;12.106;2023-04-24T10:44:55;5.63;;;5.10;;
12631;SDS011;6381;45.748;12.106;2023-04-24T10:47:25;5.93;;;5.23;;
12631;SDS011;6381;45.748;12.106;2023-04-24T10:49:54;6.13;;;5.63;;
12631;SDS011;6381;45.748;12.106;2023-04-24T10:52:43;7.90;;;5.90;;
12631;SDS011;6381;45.748;12.106;2023-04-24T10:55:12;5.00;;;4.50;;
12631;SDS011;6381;45.748;12.106;2023-04-24T11:00:31;4.50;;;3.95;;
12631;SDS011;6381;45.748;12.106;2023-04-24T11:03:00;4.40;;;4.00;;
12631;SDS011;6381;45.748;12.106;2023-04-24T11:08:28;5.10;;;4.60;;
12631;SDS011;6381;45.748;12.106;2023-04-24T11:11:01;5.30;;;4.80;;
12631;SDS011;6381;45.748;12.106;2023-04-24T11:16:31;5.60;;;4.43;;
12631;SDS011;6381;45.748;12.106;2023-04-24T11:19:02;6.03;;;4.60;;
12631;SDS011;6381;45.748;12.106;2023-04-24T11:21:39;5.00;;;4.30;;
12631;SDS011;6381;45.748;12.106;2023-04-24T11:24:23;5.70;;;4.72;;
12631;SDS011;6381;45.748;12.106;2023-04-24T11:26:53;4.40;;;4.00;;
12631;SDS011;6381;45.748;12.106;2023-04-24T11:29:25;5.03;;;4.50;;
12631;SDS011;6381;45.748;12.106;2023-04-24T11:32:14;5.78;;;3.83;;
12631;SDS011;6381;45.748;12.106;2023-04-24T11:34:48;4.10;;;3.70;;
12631;SDS011;6381;45.748;12.106;2023-04-24T11:37:19;3.80;;;3.50;;
12631;SDS011;6381;45.748;12.106;2023-04-24T11:39:50;3.35;;;3.05;;
12631;SDS011;6381;45.748;12.106;2023-04-24T11:42:20;2.78;;;2.50;;
12631;SDS011;6381;45.748;12.106;2023-04-24T11:44:51;3.10;;;2.78;;
12631;SDS011;6381;45.748;12.106;2023-04-24T11:47:27;4.05;;;2.97;;
12631;SDS011;6381;45.748;12.106;2023-04-24T11:49:57;3.13;;;2.83;;
12631;SDS011;6381;45.748;12.106;2023-04-24T11:52:29;3.60;;;3.30;;
12631;SDS011;6381;45.748;12.106;2023-04-24T11:54:58;3.72;;;3.20;;
12631;SDS011;6381;45.748;12.106;2023-04-24T11:57:28;3.85;;;3.20;;
12631;SDS011;6381;45.748;12.106;2023-04-24T12:00:00;3.60;;;3.17;;
12631;SDS011;6381;45.748;12.106;2023-04-24T12:02:37;3.60;;;2.80;;
12631;SDS011;6381;45.748;12.106;2023-04-24T12:05:06;4.15;;;3.10;;
12631;SDS011;6381;45.748;12.106;2023-04-24T12:07:41;4.78;;;3.42;;
12631;SDS011;6381;45.748;12.106;2023-04-24T12:10:10;3.97;;;3.28;;
12631;SDS011;6381;45.748;12.106;2023-04-24T12:12:39;3.50;;;3.20;;
12631;SDS011;6381;45.748;12.106;2023-04-24T12:15:08;3.45;;;3.15;;
12631;SDS011;6381;45.748;12.106;2023-04-24T12:17:40;3.60;;;3.30;;
12631;SDS011;6381;45.748;12.106;2023-04-24T12:20:10;3.33;;;3.03;;
12631;SDS011;6381;45.748;12.106;2023-04-24T12:22:46;3.92;;;3.42;;
12631;SDS011;6381;45.748;12.106;2023-04-24T12:25:15;4.20;;;3.80;;
12631;SDS011;6381;45.748;12.106;2023-04-24T12:27:46;3.95;;;3.47;;
12631;SDS011;6381;45.748;12.106;2023-04-24T12:30:20;5.07;;;3.88;;
12631;SDS011;6381;45.748;12.106;2023-04-24T12:32:54;4.35;;;3.60;;
12631;SDS011;6381;45.748;12.106;2023-04-24T12:35:27;3.50;;;3.20;;
12631;SDS011;6381;45.748;12.106;2023-04-24T12:38:06;3.42;;;3.13;;
12631;SDS011;6381;45.748;12.106;2023-04-24T12:40:35;5.28;;;2.97;;
12631;SDS011;6381;45.748;12.106;2023-04-24T12:43:12;4.30;;;3.47;;
12631;SDS011;6381;45.748;12.106;2023-04-24T12:45:42;3.63;;;3.33;;
12631;SDS011;6381;45.748;12.106;2023-04-24T12:48:11;6.47;;;3.55;;
12631;SDS011;6381;45.748;12.106;2023-04-24T12:50:41;5.28;;;3.50;;
12631;SDS011;6381;45.748;12.106;2023-04-24T12:53:14;3.83;;;3.35;;
12631;SDS011;6381;45.748;12.106;2023-04-24T12:55:43;4.40;;;3.67;;
12631;SDS011;6381;45.748;12.106;2023-04-24T12:58:13;4.63;;;3.85;;
12631;SDS011;6381;45.748;12.106;2023-04-24T13:00:42;4.00;;;3.38;;
12631;SDS011;6381;45.748;12.106;2023-04-24T13:03:12;3.97;;;3.47;;
12631;SDS011;6381;45.748;12.106;2023-04-24T13:05:42;4.38;;;3.33;;
12631;SDS011;6381;45.748;12.106;2023-04-24T13:08:11;3.53;;;3.22;;
12631;SDS011;6381;45.748;12.106;2023-04-24T13:10:42;5.57;;;3.53;;
12631;SDS011;6381;45.748;12.106;2023-04-24T13:13:10;3.60;;;3.13;;
12631;SDS011;6381;45.748;12.106;2023-04-24T13:15:39;5.68;;;2.90;;
12631;SDS011;6381;45.748;12.106;2023-04-24T13:18:09;3.25;;;2.95;;
12631;SDS011;6381;45.748;12.106;2023-04-24T13:20:38;3.10;;;2.80;;
12631;SDS011;6381;45.748;12.106;2023-04-24T13:23:08;4.15;;;2.80;;
12631;SDS011;6381;45.748;12.106;2023-04-24T13:25:37;4.47;;;2.60;;
12631;SDS011;6381;45.748;12.106;2023-04-24T13:28:07;2.95;;;2.50;;
12631;SDS011;6381;45.748;12.106;2023-04-24T13:30:36;2.92;;;2.40;;
12631;SDS011;6381;45.748;12.106;2023-04-24T13:33:05;2.35;;;1.90;;
12631;SDS011;6381;45.748;12.106;2023-04-24T13:35:34;3.28;;;2.53;;
12631;SDS011;6381;45.748;12.106;2023-04-24T13:38:02;3.58;;;2.50;;
12631;SDS011;6381;45.748;12.106;2023-04-24T13:40:33;3.38;;;2.25;;
12631;SDS011;6381;45.748;12.106;2023-04-24T13:43:02;3.13;;;2.20;;
12631;SDS011;6381;45.748;12.106;2023-04-24T13:45:32;3.38;;;2.60;;
12631;SDS011;6381;45.748;12.106;2023-04-24T13:48:01;2.53;;;2.33;;
12631;SDS011;6381;45.748;12.106;2023-04-24T13:50:30;2.58;;;2.38;;
12631;SDS011;6381;45.748;12.106;2023-04-24T13:52:59;3.40;;;2.78;;
12631;SDS011;6381;45.748;12.106;2023-04-24T13:55:28;2.85;;;2.15;;
12631;SDS011;6381;45.748;12.106;2023-04-24T13:57:57;2.75;;;2.10;;
12631;SDS011;6381;45.748;12.106;2023-04-24T14:00:26;3.15;;;2.42;;
12631;SDS011;6381;45.748;12.106;2023-04-24T14:02:57;2.58;;;2.38;;
12631;SDS011;6381;45.748;12.106;2023-04-24T14:05:26;4.10;;;2.03;;
12631;SDS011;6381;45.748;12.106;2023-04-24T14:07:55;2.88;;;2.13;;
12631;SDS011;6381;45.748;12.106;2023-04-24T14:10:24;2.38;;;2.15;;
12631;SDS011;6381;45.748;12.106;2023-04-24T14:12:53;2.22;;;1.83;;
12631;SDS011;6381;45.748;12.106;2023-04-24T14:15:22;2.80;;;1.90;;
12631;SDS011;6381;45.748;12.106;2023-04-24T14:17:51;3.20;;;2.00;;
12631;SDS011;6381;45.748;12.106;2023-04-24T14:20:22;1.85;;;1.65;;
12631;SDS011;6381;45.748;12.106;2023-04-24T14:22:51;1.70;;;1.58;;
12631;SDS011;6381;45.748;12.106;2023-04-24T14:25:21;1.98;;;1.67;;
12631;SDS011;6381;45.748;12.106;2023-04-24T14:27:50;2.10;;;1.90;;
12631;SDS011;6381;45.748;12.106;2023-04-24T14:30:20;3.33;;;1.98;;
12631;SDS011;6381;45.748;12.106;2023-04-24T14:32:49;1.58;;;1.48;;
12631;SDS011;6381;45.748;12.106;2023-04-24T14:35:18;1.42;;;1.30;;
12631;SDS011;6381;45.748;12.106;2023-04-24T14:37:48;3.95;;;1.40;;
12631;SDS011;6381;45.748;12.106;2023-04-24T14:40:17;2.75;;;1.20;;
12631;SDS011;6381;45.748;12.106;2023-04-24T14:42:55;2.25;;;1.00;;
12631;SDS011;6381;45.748;12.106;2023-04-24T14:45:24;1.40;;;1.00;;
12631;SDS011;6381;45.748;12.106;2023-04-24T14:47:53;2.13;;;1.10;;
12631;SDS011;6381;45.748;12.106;2023-04-24T14:50:23;1.25;;;1.08;;
12631;SDS011;6381;45.748;12.106;2023-04-24T14:52:56;1.10;;;1.00;;
12631;SDS011;6381;45.748;12.106;2023-04-24T14:55:25;2.78;;;1.30;;
12631;SDS011;6381;45.748;12.106;2023-04-24T14:57:54;1.65;;;1.50;;
12631;SDS011;6381;45.748;12.106;2023-04-24T15:00:23;2.30;;;1.40;;
12631;SDS011;6381;45.748;12.106;2023-04-24T15:02:52;2.20;;;1.98;;